Time;durP1;ratioP1;P1;durP2;ratioP2;P2;SDS_P1;SDS_P2;PMS_P1;PMS_P2;Temp;Humidity;BMP_temperature;BMP_pressure;BME280_temperature;BME280_humidity;BME280_pressure;Samples;Min_cycle;Max_cycle;Signal;HPM_P1;HPM_P2
2022/04/03 00:01:30;;;;;;;16.10;8.37;;;;;;;-145.69;100.00;73066.25;5073297;28;20646;-76
2022/04/03 00:03:57;;;;;;;14.23;8.30;;;;;;;-145.69;100.00;73070.25;5073642;28;20195;-76
2022/04/03 00:06:23;;;;;;;16.73;7.70;;;;;;;-145.69;100.00;73066.25;5073448;28;20592;-76
2022/04/03 00:08:50;;;;;;;15.43;7.63;;;;;;;-145.69;100.00;73070.25;5073192;28;20199;-76
2022/04/03 00:11:18;;;;;;;13.20;7.37;;;;;;;-145.69;100.00;73074.22;5073303;28;20297;-75
2022/04/03 00:13:44;;;;;;;18.77;8.47;;;;;;;-145.69;100.00;73074.22;5073237;28;20198;-76
2022/04/03 00:16:11;;;;;;;14.10;7.57;;;;;;;-145.69;100.00;73076.22;5073000;28;20202;-76
2022/04/03 00:18:37;;;;;;;13.87;7.53;;;;;;;-145.69;100.00;73084.19;5072424;28;20241;-75
2022/04/03 00:21:04;;;;;;;13.80;7.57;;;;;;;-145.69;100.00;73092.16;5073206;28;20252;-75
2022/04/03 00:23:31;;;;;;;14.07;7.40;;;;;;;-145.69;100.00;73112.06;5072305;28;20290;-75
2022/04/03 00:25:57;;;;;;;15.03;7.60;;;;;;;-145.69;100.00;73114.03;5069871;28;20202;-75
2022/04/03 00:28:28;;;;;;;12.67;7.13;;;;;;;-145.69;100.00;73122.00;5073025;28;20194;-76
2022/04/03 00:30:54;;;;;;;17.77;8.77;;;;;;;-145.69;100.00;73122.00;5073080;28;20332;-75
2022/04/03 00:33:21;;;;;;;19.90;9.10;;;;;;;-145.69;100.00;73124.00;5072769;28;20657;-75
2022/04/03 00:35:47;;;;;;;19.20;8.67;;;;;;;-145.69;100.00;73112.06;5072948;28;20210;-75
2022/04/03 00:38:14;;;;;;;15.03;8.33;;;;;;;-145.69;100.00;73100.09;5072594;28;20235;-75
2022/04/03 00:40:41;;;;;;;17.87;8.93;;;;;;;-145.69;100.00;73100.09;5073033;28;20206;-75
2022/04/03 00:43:08;;;;;;;14.50;8.60;;;;;;;-145.69;100.00;73102.09;5072948;28;20199;-76
2022/04/03 00:45:36;;;;;;;16.93;8.93;;;;;;;-145.69;100.00;73098.13;5072536;28;20670;-76
2022/04/03 00:48:03;;;;;;;16.30;9.13;;;;;;;-145.69;100.00;73094.13;5072773;28;20202;-75
2022/04/03 00:50:29;;;;;;;15.50;8.90;;;;;;;-145.69;100.00;73094.13;5072797;28;20202;-75
2022/04/03 00:52:56;;;;;;;16.97;8.70;;;;;;;-145.69;100.00;73096.13;5072934;28;20281;-76
2022/04/03 00:55:22;;;;;;;17.20;9.23;;;;;;;-145.69;100.00;73092.16;5073002;28;20198;-75
2022/04/03 00:57:49;;;;;;;19.13;9.63;;;;;;;-145.69;100.00;73086.19;5072556;28;20709;-76
2022/04/03 01:00:17;;;;;;;17.70;8.73;;;;;;;-145.69;100.00;73080.19;5072848;28;20202;-76
2022/04/03 01:02:45;;;;;;;17.83;9.97;;;;;;;-145.69;100.00;73090.16;5072681;28;20245;-76
2022/04/03 01:05:11;;;;;;;18.13;9.20;;;;;;;-145.69;100.00;73092.16;5072550;28;20205;-75
2022/04/03 01:07:38;;;;;;;19.07;9.43;;;;;;;-145.69;100.00;73090.16;5072813;28;20208;-76
2022/04/03 01:10:05;;;;;;;21.27;9.50;;;;;;;-145.69;100.00;73100.09;5072776;28;20206;-75
2022/04/03 01:12:32;;;;;;;19.87;9.83;;;;;;;-145.69;100.00;73100.09;5072513;28;20194;-75
2022/04/03 01:14:58;;;;;;;20.37;9.73;;;;;;;-145.69;100.00;73102.09;5072358;28;20608;-75
2022/04/03 01:17:25;;;;;;;18.80;9.87;;;;;;;-145.69;100.00;73100.09;5072296;28;20235;-75
2022/04/03 01:19:52;;;;;;;22.00;10.97;;;;;;;-145.69;100.00;73102.09;5072366;28;20230;-75
2022/04/03 01:22:19;;;;;;;21.20;10.27;;;;;;;-145.69;100.00;73106.09;5072682;28;20255;-75
2022/04/03 01:24:45;;;;;;;20.97;10.30;;;;;;;-145.69;100.00;73106.09;5072627;28;20199;-76
2022/04/03 01:27:13;;;;;;;23.20;10.97;;;;;;;-145.69;100.00;73102.09;5072615;28;20210;-75
2022/04/03 01:29:40;;;;;;;19.03;10.57;;;;;;;-145.69;100.00;73106.09;5072438;28;20733;-75
2022/04/03 01:32:07;;;;;;;20.17;10.27;;;;;;;-145.69;100.00;73114.03;5071918;28;20703;-75
2022/04/03 01:34:34;;;;;;;21.00;10.60;;;;;;;-145.69;100.00;73108.06;5072733;28;20686;-75
2022/04/03 01:37:01;;;;;;;24.73;10.80;;;;;;;-145.69;100.00;73106.09;5076085;28;20656;-76
2022/04/03 01:39:28;;;;;;;26.83;11.73;;;;;;;-145.69;100.00;73110.06;5075957;28;20226;-76
2022/04/03 01:41:54;;;;;;;21.77;10.57;;;;;;;-145.69;100.00;73114.03;5076143;28;20210;-76
2022/04/03 01:44:22;;;;;;;20.20;10.40;;;;;;;-145.69;100.00;73116.03;5075700;28;20252;-76
2022/04/03 01:46:49;;;;;;;21.43;11.23;;;;;;;-145.69;100.00;73114.03;5075884;28;20202;-76
2022/04/03 01:49:15;;;;;;;21.97;11.07;;;;;;;-145.69;100.00;73118.03;5075778;28;20199;-76
2022/04/03 01:51:42;;;;;;;26.23;12.03;;;;;;;-145.69;100.00;73114.03;5075959;28;20210;-75
2022/04/03 01:54:08;;;;;;;23.73;11.37;;;;;;;-145.69;100.00;73114.03;5076075;28;20203;-76
2022/04/03 01:56:35;;;;;;;22.13;11.23;;;;;;;-145.69;100.00;73118.03;5075848;28;20207;-76
2022/04/03 01:59:02;;;;;;;19.17;9.87;;;;;;;-145.69;100.00;73120.00;5075631;28;20233;-76
2022/04/03 02:01:31;;;;;;;23.17;11.23;;;;;;;-145.69;100.00;73118.03;5075505;28;20723;-76
2022/04/03 02:03:57;;;;;;;21.20;11.20;;;;;;;-145.69;100.00;73110.06;5075775;28;20252;-75
2022/04/03 02:06:24;;;;;;;21.90;10.63;;;;;;;-145.69;100.00;73124.00;5075877;28;20198;-76
2022/04/03 02:08:51;;;;;;;26.87;11.90;;;;;;;-145.69;100.00;73126.00;5075584;28;20288;-76
2022/04/03 02:11:17;;;;;;;26.00;11.90;;;;;;;-145.69;100.00;73135.94;5075341;28;20206;-76
2022/04/03 02:13:44;;;;;;;29.93;11.87;;;;;;;-145.69;100.00;73135.94;5075415;28;20203;-75
2022/04/03 02:16:10;;;;;;;26.53;11.77;;;;;;;-145.69;100.00;73135.94;5074962;28;20203;-76
2022/04/03 02:18:38;;;;;;;25.70;12.33;;;;;;;-145.69;100.00;73133.94;5075082;28;20693;-76
2022/04/03 02:21:05;;;;;;;24.83;12.03;;;;;;;-145.69;100.00;73141.91;5075369;28;20202;-75
2022/04/03 02:23:31;;;;;;;23.20;11.50;;;;;;;-145.69;100.00;73141.91;5059563;28;20203;-76
2022/04/03 02:25:58;;;;;;;23.03;11.27;;;;;;;-145.69;100.00;73145.91;5055408;28;20205;-76
2022/04/03 02:28:24;;;;;;;21.63;10.90;;;;;;;-145.69;100.00;73149.88;5055239;28;20662;-76
2022/04/03 02:30:51;;;;;;;20.37;10.27;;;;;;;-145.69;100.00;73147.88;5055362;28;20211;-76
2022/04/03 02:33:18;;;;;;;21.73;10.67;;;;;;;-145.69;100.00;73149.88;5055137;28;20203;-77
2022/04/03 02:35:46;;;;;;;21.13;10.40;;;;;;;-145.69;100.00;73153.84;5055272;28;20199;-75
2022/04/03 02:38:15;;;;;;;23.50;11.13;;;;;;;-145.69;100.00;73159.84;5055169;28;20203;-76
2022/04/03 02:40:43;;;;;;;22.13;10.93;;;;;;;-145.69;100.00;73153.84;5055101;28;20200;-76
2022/04/03 02:43:10;;;;;;;22.47;11.13;;;;;;;-145.69;100.00;73159.84;5054887;28;20260;-76
2022/04/03 02:45:36;;;;;;;22.50;11.80;;;;;;;-145.69;100.00;73157.84;5069420;28;20195;-76
2022/04/03 02:48:03;;;;;;;18.50;10.50;;;;;;;-145.69;100.00;73161.81;5074429;28;20209;-76
2022/04/03 02:50:30;;;;;;;21.17;10.37;;;;;;;-145.69;100.00;73161.81;5074803;28;20203;-76
2022/04/03 02:52:58;;;;;;;23.13;10.83;;;;;;;-145.69;100.00;73159.84;5074645;28;20680;-76
2022/04/03 02:55:25;;;;;;;24.53;12.13;;;;;;;-145.69;100.00;73157.84;5074666;28;20207;-76
2022/04/03 02:57:53;;;;;;;23.67;11.43;;;;;;;-145.69;100.00;73159.84;5074391;28;20187;-76
2022/04/03 03:00:20;;;;;;;22.77;11.43;;;;;;;-145.69;100.00;73157.84;5074613;28;20288;-76
2022/04/03 03:02:48;;;;;;;22.87;11.87;;;;;;;-145.69;100.00;73157.84;5074422;28;20543;-76
2022/04/03 03:05:15;;;;;;;23.00;12.17;;;;;;;-145.69;100.00;73147.88;5074254;28;20755;-76
2022/04/03 03:07:45;;;;;;;22.17;11.47;;;;;;;-145.69;100.00;73153.84;5074328;28;20580;-76
2022/04/03 03:10:14;;;;;;;24.63;10.90;;;;;;;-145.69;100.00;73153.84;5074218;28;20209;-76
2022/04/03 03:12:41;;;;;;;19.63;9.83;;;;;;;-145.69;100.00;73153.84;5074474;28;20214;-76
2022/04/03 03:15:10;;;;;;;23.67;11.17;;;;;;;-145.69;100.00;73145.91;5074124;28;20602;-76
2022/04/03 03:17:36;;;;;;;20.83;10.40;;;;;;;-145.69;100.00;73153.84;5074071;28;20223;-76
2022/04/03 03:20:05;;;;;;;22.77;11.50;;;;;;;-145.69;100.00;73153.84;5074156;28;20233;-76
2022/04/03 03:22:32;;;;;;;22.17;11.23;;;;;;;-145.69;100.00;73149.88;5074001;28;20268;-76
2022/04/03 03:24:58;;;;;;;23.60;11.33;;;;;;;-145.69;100.00;73155.84;5074328;28;20199;-76
2022/04/03 03:27:26;;;;;;;25.87;11.77;;;;;;;-145.69;100.00;73151.88;5074007;28;20199;-76
2022/04/03 03:29:53;;;;;;;22.43;11.47;;;;;;;-145.69;100.00;73155.84;5074114;28;20206;-76
2022/04/03 03:32:19;;;;;;;20.60;10.80;;;;;;;-145.69;100.00;73143.91;5074105;28;20333;-76
2022/04/03 03:34:46;;;;;;;27.67;11.90;;;;;;;-145.69;100.00;73151.88;5073768;28;20195;-76
2022/04/03 03:37:12;;;;;;;25.87;11.57;;;;;;;-145.69;100.00;73153.84;5073818;28;20198;-76
2022/04/03 03:39:39;;;;;;;27.30;12.20;;;;;;;-145.69;100.00;73153.84;5073751;28;20258;-76
2022/04/03 03:42:06;;;;;;;31.20;12.10;;;;;;;-145.69;100.00;73149.88;5073959;28;20222;-76
2022/04/03 03:44:34;;;;;;;27.33;12.47;;;;;;;-145.69;100.00;73155.84;5073475;28;20550;-76
2022/04/03 03:47:00;;;;;;;28.03;13.03;;;;;;;-145.69;100.00;73157.84;5073548;28;20203;-75
2022/04/03 03:49:27;;;;;;;27.57;12.53;;;;;;;-145.69;100.00;73157.84;5073349;28;20198;-76
2022/04/03 03:51:54;;;;;;;33.50;12.47;;;;;;;-145.69;100.00;73159.84;5073461;28;20264;-76
2022/04/03 03:54:20;;;;;;;26.13;12.97;;;;;;;-145.69;100.00;73161.81;5073530;28;20249;-76
2022/04/03 03:56:46;;;;;;;29.30;12.50;;;;;;;-145.69;100.00;73161.81;5073806;28;20604;-75
2022/04/03 03:59:14;;;;;;;28.33;12.73;;;;;;;-145.69;100.00;73163.81;5072913;28;20230;-76
2022/04/03 04:01:42;;;;;;;26.90;13.00;;;;;;;-145.69;100.00;73159.84;5073726;28;20198;-76
2022/04/03 04:04:09;;;;;;;27.83;13.33;;;;;;;-145.69;100.00;73161.81;5073485;28;20205;-76
2022/04/03 04:06:35;;;;;;;30.20;12.00;;;;;;;-145.69;100.00;73159.84;5073274;28;20219;-76
2022/04/03 04:09:02;;;;;;;30.33;12.90;;;;;;;-145.69;100.00;73163.81;5073482;28;20209;-76
2022/04/03 04:11:29;;;;;;;27.27;13.13;;;;;;;-145.69;100.00;73165.81;5073060;28;20658;-75
2022/04/03 04:13:55;;;;;;;27.23;12.73;;;;;;;-145.69;100.00;73165.81;5073007;28;20612;-76
2022/04/03 04:16:22;;;;;;;26.43;13.20;;;;;;;-145.69;100.00;73165.81;5073282;28;20199;-76
2022/04/03 04:18:50;;;;;;;26.03;11.87;;;;;;;-145.69;100.00;73165.81;5055539;28;20305;-76
2022/04/03 04:21:17;;;;;;;25.77;11.03;;;;;;;-145.69;100.00;73161.81;5052949;28;20737;-76
2022/04/03 04:23:43;;;;;;;23.37;11.60;;;;;;;-145.69;100.00;73165.81;5053026;28;20719;-76
2022/04/03 04:26:10;;;;;;;24.40;11.03;;;;;;;-145.69;100.00;73155.84;5053127;28;20206;-76
2022/04/03 04:28:37;;;;;;;24.13;11.90;;;;;;;-145.69;100.00;73163.81;5052972;28;20199;-76
2022/04/03 04:31:04;;;;;;;23.57;10.43;;;;;;;-145.69;100.00;73161.81;5053071;28;20200;-76
2022/04/03 04:33:30;;;;;;;23.07;11.23;;;;;;;-145.69;100.00;73159.84;5052791;28;20261;-76
2022/04/03 04:35:58;;;;;;;20.30;10.63;;;;;;;-145.69;100.00;73163.81;5052858;28;20200;-76
2022/04/03 04:38:25;;;;;;;19.63;9.53;;;;;;;-145.69;100.00;73161.81;5053082;28;20199;-76
2022/04/03 04:40:51;;;;;;;22.53;10.33;;;;;;;-145.69;100.00;73161.81;5052898;28;20237;-76
2022/04/03 04:43:17;;;;;;;20.13;10.43;;;;;;;-145.69;100.00;73157.84;5052823;28;20222;-76
2022/04/03 04:45:44;;;;;;;21.73;10.47;;;;;;;-145.69;100.00;73165.81;5072245;28;20190;-75
2022/04/03 04:48:10;;;;;;;19.43;10.07;;;;;;;-145.69;100.00;73165.81;5072648;28;20565;-76
2022/04/03 04:50:37;;;;;;;18.03;9.27;;;;;;;-145.69;100.00;73169.78;5072991;28;20207;-76
2022/04/03 04:53:05;;;;;;;24.07;10.13;;;;;;;-145.69;100.00;73165.81;5072646;28;20214;-76
2022/04/03 04:55:32;;;;;;;22.03;10.23;;;;;;;-145.69;100.00;73167.78;5072792;28;20203;-76
2022/04/03 04:57:58;;;;;;;21.40;10.57;;;;;;;-145.69;100.00;73167.78;5072725;28;20654;-76
2022/04/03 05:00:26;;;;;;;18.97;9.50;;;;;;;-145.69;100.00;73173.75;5072573;28;20230;-76
2022/04/03 05:02:52;;;;;;;19.67;10.57;;;;;;;-145.69;100.00;73177.75;5072597;28;20252;-76
2022/04/03 05:05:21;;;;;;;16.93;10.27;;;;;;;-145.69;100.00;73173.75;5072835;28;20206;-76
2022/04/03 05:07:50;;;;;;;19.63;10.37;;;;;;;-145.69;100.00;73177.75;5072591;28;20256;-76
2022/04/03 05:10:18;;;;;;;18.57;8.83;;;;;;;-145.69;100.00;73181.72;5074329;28;20260;-76
2022/04/03 05:12:45;;;;;;;22.57;10.57;;;;;;;-145.69;100.00;73181.72;5076545;28;20203;-76
2022/04/03 05:15:13;;;;;;;22.10;10.07;;;;;;;-145.69;100.00;73177.75;5076073;28;20225;-76
2022/04/03 05:17:40;;;;;;;20.13;10.10;;;;;;;-145.69;100.00;73177.75;5076378;28;20234;-76
2022/04/03 05:20:08;;;;;;;22.70;10.70;;;;;;;-145.69;100.00;73173.75;5076380;28;20283;-76
2022/04/03 05:22:34;;;;;;;20.60;10.93;;;;;;;-145.69;100.00;73171.78;5076502;28;20206;-76
2022/04/03 05:25:03;;;;;;;19.03;9.30;;;;;;;-145.69;100.00;73169.78;5076312;28;20214;-76
2022/04/03 05:27:31;;;;;;;19.47;9.50;;;;;;;-145.69;100.00;73165.81;5076233;28;20207;-76
2022/04/03 05:29:57;;;;;;;18.20;9.47;;;;;;;-145.69;100.00;73161.81;5076241;28;20210;-75
2022/04/03 05:32:26;;;;;;;19.70;9.37;;;;;;;-145.69;100.00;73147.88;5076361;28;20202;-76
2022/04/03 05:34:53;;;;;;;19.73;9.83;;;;;;;-145.69;100.00;73141.91;5076325;28;20209;-76
2022/04/03 05:37:20;;;;;;;18.27;9.40;;;;;;;-145.69;100.00;73143.91;5075938;28;20553;-76
2022/04/03 05:39:46;;;;;;;19.67;9.80;;;;;;;-145.69;100.00;73149.88;5076010;28;20309;-76
2022/04/03 05:42:13;;;;;;;18.77;9.67;;;;;;;-145.69;100.00;73143.91;5076028;28;20253;-76
2022/04/03 05:44:41;;;;;;;18.90;9.63;;;;;;;-145.69;100.00;73139.91;5075859;28;20221;-76
2022/04/03 05:47:07;;;;;;;18.20;9.30;;;;;;;-145.69;100.00;73133.94;5075911;28;20198;-76
2022/04/03 05:49:34;;;;;;;21.40;9.57;;;;;;;-145.69;100.00;73133.94;5075837;28;20569;-76
2022/04/03 05:52:01;;;;;;;19.67;9.73;;;;;;;-145.69;100.00;73118.03;5075876;28;20253;-76
2022/04/03 05:54:27;;;;;;;19.33;9.50;;;;;;;-145.69;100.00;73116.03;5075780;28;20673;-75
2022/04/03 05:56:55;;;;;;;17.67;8.70;;;;;;;-145.69;100.00;73100.09;5075774;28;20203;-76
2022/04/03 05:59:21;;;;;;;18.73;8.97;;;;;;;-145.69;100.00;73098.13;5075809;28;20719;-76
2022/04/03 06:01:50;;;;;;;16.63;8.77;;;;;;;-145.69;100.00;73078.22;5075750;28;20244;-76
2022/04/03 06:04:17;;;;;;;18.60;8.40;;;;;;;-145.69;100.00;73086.19;5075589;28;20203;-76
2022/04/03 06:06:43;;;;;;;17.00;9.00;;;;;;;-145.69;100.00;73086.19;5075587;28;20597;-75
2022/04/03 06:09:09;;;;;;;18.13;9.50;;;;;;;-145.69;100.00;73082.19;5075494;28;20199;-76
2022/04/03 06:11:36;;;;;;;19.77;8.97;;;;;;;-145.69;100.00;73070.25;5075458;28;20566;-76
2022/04/03 06:14:03;;;;;;;15.23;8.47;;;;;;;-145.69;100.00;73070.25;5075271;28;20202;-76
2022/04/03 06:16:29;;;;;;;17.10;8.53;;;;;;;-145.69;100.00;73054.31;5075390;28;20198;-76
2022/04/03 06:18:57;;;;;;;16.77;8.97;;;;;;;-145.69;100.00;73046.34;5075186;28;20254;-76
2022/04/03 06:21:23;;;;;;;14.60;8.23;;;;;;;-145.69;100.00;73054.31;5074157;28;20720;-76
2022/04/03 06:23:50;;;;;;;15.00;7.47;;;;;;;-145.69;100.00;73028.44;5075100;28;20195;-76
2022/04/03 06:26:16;;;;;;;13.70;7.87;;;;;;;-145.69;100.00;73046.34;5075555;28;20206;-76
2022/04/03 06:28:44;;;;;;;13.03;7.23;;;;;;;-145.69;100.00;73054.31;5072008;28;20638;-76
2022/04/03 06:31:11;;;;;;;15.33;8.57;;;;;;;-145.69;100.00;73054.31;5075236;28;20565;-76
2022/04/03 06:33:38;;;;;;;17.27;8.20;;;;;;;-145.69;100.00;73046.34;5075230;28;20561;-75
2022/04/03 06:36:06;;;;;;;23.53;11.90;;;;;;;-145.69;100.00;73044.38;5075016;28;20289;-75
2022/04/03 06:38:33;;;;;;;19.97;9.63;;;;;;;-145.69;100.00;73028.44;5074864;28;20912;-76
2022/04/03 06:41:00;;;;;;;25.77;11.83;;;;;;;-145.69;100.00;73022.47;5075273;28;20234;-76
2022/04/03 06:43:28;;;;;;;14.77;8.17;;;;;;;-145.69;100.00;72994.59;5074810;28;20202;-76
2022/04/03 06:45:56;;;;;;;16.57;9.10;;;;;;;-145.69;100.00;72990.63;5074826;28;20550;-76
2022/04/03 06:48:24;;;;;;;14.67;9.03;;;;;;;-145.69;100.00;73018.50;5074682;28;20664;-76
2022/04/03 06:50:51;;;;;;;15.20;7.87;;;;;;;-145.69;100.00;73018.50;5074607;28;20658;-76
2022/04/03 06:53:19;;;;;;;14.43;7.77;;;;;;;-145.69;100.00;72998.59;5074524;28;20268;-76
2022/04/03 06:55:45;;;;;;;13.43;7.30;;;;;;;-145.69;100.00;73006.53;5074555;28;20654;-76
2022/04/03 06:58:12;;;;;;;12.67;7.33;;;;;;;-145.69;100.00;72996.59;5074645;28;20792;-76
2022/04/03 07:00:40;;;;;;;16.27;7.50;;;;;;;-145.69;100.00;72998.59;5074488;28;20223;-76
2022/04/03 07:03:07;;;;;;;15.40;8.07;;;;;;;-145.69;100.00;73028.44;5074379;28;20257;-75
2022/04/03 07:05:33;;;;;;;16.03;8.77;;;;;;;-145.69;100.00;73030.44;5074454;28;20202;-76
2022/04/03 07:08:00;;;;;;;18.00;7.87;;;;;;;-145.69;100.00;73014.50;5074156;28;20672;-76
2022/04/03 07:10:28;;;;;;;16.33;8.10;;;;;;;-145.69;100.00;73010.53;5074495;28;20207;-76
2022/04/03 07:12:55;;;;;;;15.93;8.40;;;;;;;-145.69;100.00;73030.44;5074116;28;20206;-75
2022/04/03 07:15:22;;;;;;;14.60;7.87;;;;;;;-145.69;100.00;72988.63;5074085;28;20199;-76
2022/04/03 07:17:49;;;;;;;14.90;7.73;;;;;;;-145.69;100.00;72994.59;5073919;28;20226;-76
2022/04/03 07:20:15;;;;;;;16.53;8.77;;;;;;;-145.69;100.00;73020.47;5073867;28;20222;-76
2022/04/03 07:22:42;;;;;;;15.23;7.63;;;;;;;-145.69;100.00;73014.50;5073959;28;20252;-76
2022/04/03 07:25:09;;;;;;;16.60;8.50;;;;;;;-145.69;100.00;73014.50;5073949;28;20573;-75
2022/04/03 07:27:37;;;;;;;15.43;8.40;;;;;;;-145.69;100.00;72986.63;5073987;28;20210;-76
2022/04/03 07:30:05;;;;;;;14.73;7.80;;;;;;;-145.69;100.00;72972.72;5074098;28;20302;-76
2022/04/03 07:32:32;;;;;;;13.07;7.40;;;;;;;-145.69;100.00;72974.69;5073829;28;20209;-76
2022/04/03 07:34:58;;;;;;;17.13;9.17;;;;;;;-145.69;100.00;73018.50;5073863;28;20226;-76
2022/04/03 07:37:25;;;;;;;18.57;11.37;;;;;;;-145.69;100.00;73056.31;5074262;28;20294;-77
2022/04/03 07:39:52;;;;;;;15.90;8.67;;;;;;;-145.69;100.00;73058.31;5073752;28;20202;-76
2022/04/03 07:42:19;;;;;;;14.03;8.03;;;;;;;-145.69;100.00;73044.38;5073663;28;20620;-76
2022/04/03 07:44:46;;;;;;;19.07;8.07;;;;;;;-145.69;100.00;73010.53;5073566;28;20226;-76
2022/04/03 07:47:14;;;;;;;14.87;7.90;;;;;;;-145.69;100.00;72958.78;5073686;28;20202;-76
2022/04/03 07:49:41;;;;;;;16.73;8.40;;;;;;;-145.69;100.00;72909.00;5073852;28;20208;-76
2022/04/03 07:52:08;;;;;;;13.67;7.50;;;;;;;-145.69;100.00;72885.13;5073775;28;20332;-76
2022/04/03 07:54:35;;;;;;;12.00;7.43;;;;;;;-145.69;100.00;72905.03;5073593;28;20203;-76
2022/04/03 07:57:01;;;;;;;13.70;7.50;;;;;;;-145.69;100.00;72867.19;5073585;28;20199;-76
2022/04/03 07:59:28;;;;;;;13.33;7.53;;;;;;;-145.69;100.00;72803.50;5073470;28;20199;-76
2022/04/03 08:01:56;;;;;;;12.20;6.77;;;;;;;-145.69;98.31;72755.72;5073289;28;20226;-76
2022/04/03 08:04:22;;;;;;;12.27;6.40;;;;;;;-145.69;95.17;72743.78;5073425;28;20265;-76
2022/04/03 08:06:49;;;;;;;11.40;6.27;;;;;;;-145.69;93.50;72713.94;5073564;28;20210;-76
2022/04/03 08:09:16;;;;;;;13.40;6.10;;;;;;;-145.69;91.83;72731.84;5073370;28;20304;-76
2022/04/03 08:11:42;;;;;;;12.37;7.37;;;;;;;-145.69;97.65;72785.59;5073024;28;20289;-76
2022/04/03 08:14:09;;;;;;;12.50;7.13;;;;;;;-145.69;96.40;72789.56;5073053;28;20199;-76
2022/04/03 08:16:36;;;;;;;12.13;6.60;;;;;;;-145.69;95.27;72785.59;5072991;28;20195;-76
2022/04/03 08:19:04;;;;;;;12.97;6.60;;;;;;;-145.69;95.30;72765.69;5033222;28;20229;-76
2022/04/03 08:21:30;;;;;;;13.23;7.37;;;;;;;-145.69;95.22;72751.75;5033194;28;20230;-75
2022/04/03 08:23:57;;;;;;;10.90;6.73;;;;;;;-145.69;93.90;72775.63;5033322;28;20250;-75
2022/04/03 08:26:25;;;;;;;12.20;6.97;;;;;;;-145.69;93.46;72751.75;5033213;28;20200;-76
2022/04/03 08:28:52;;;;;;;12.23;6.70;;;;;;;-145.69;89.31;72701.97;5032782;28;20196;-76
2022/04/03 08:31:20;;;;;;;10.07;6.07;;;;;;;-145.69;89.73;72703.97;5033309;28;20204;-76
2022/04/03 08:33:47;;;;;;;11.20;6.50;;;;;;;-145.69;92.64;72745.78;5033146;28;20235;-75
2022/04/03 08:36:15;;;;;;;12.07;7.10;;;;;;;-145.69;94.19;72733.84;5016652;28;20204;-75
2022/04/03 08:38:42;;;;;;;13.00;6.83;;;;;;;-145.69;89.88;72753.75;5013186;28;20204;-75
2022/04/03 08:41:08;;;;;;;12.00;7.33;;;;;;;-145.69;88.65;72733.84;5028400;28;20228;-75
2022/04/03 08:43:35;;;;;;;11.97;6.97;;;;;;;-145.69;89.98;72771.66;5032866;28;20216;-75
2022/04/03 08:46:02;;;;;;;13.33;7.90;;;;;;;-145.69;92.53;72809.47;5038858;28;20261;-75
2022/04/03 08:48:32;;;;;;;13.33;8.53;;;;;;;-145.69;97.33;72843.31;5039617;28;20230;-75
2022/04/03 08:51:02;;;;;;;13.03;7.67;;;;;;;-145.69;94.07;72795.53;5039717;28;20211;-75
2022/04/03 08:53:31;;;;;;;11.27;6.47;;;;;;;-145.69;92.73;72727.88;5039598;28;20234;-75
2022/04/03 08:55:59;;;;;;;13.07;6.73;;;;;;;-145.69;88.00;72684.06;5039418;28;20250;-75
2022/04/03 08:58:26;;;;;;;11.90;7.20;;;;;;;-145.69;91.11;72715.91;5039594;28;20207;-75
2022/04/03 09:00:53;;;;;;;12.77;7.67;;;;;;;-145.69;89.81;72745.78;5039254;28;20345;-75
2022/04/03 09:03:19;;;;;;;11.53;7.00;;;;;;;-145.69;92.06;72837.34;5039443;28;20559;-75
2022/04/03 09:05:46;;;;;;;10.27;6.67;;;;;;;-145.69;94.81;72837.34;5039424;28;20199;-75
2022/04/03 09:08:13;;;;;;;14.43;7.87;;;;;;;-145.69;99.82;72883.13;5039506;28;20204;-74
2022/04/03 09:10:41;;;;;;;12.83;7.77;;;;;;;-145.69;97.51;72857.25;5039217;28;20207;-75
2022/04/03 09:13:08;;;;;;;11.63;6.90;;;;;;;-145.69;94.28;72843.31;5039506;28;20200;-75
2022/04/03 09:15:36;;;;;;;14.17;8.10;;;;;;;-145.69;94.69;72819.44;5039381;28;20204;-74
2022/04/03 09:18:05;;;;;;;11.40;6.60;;;;;;;-145.69;96.26;72889.09;5062580;28;20242;-75
2022/04/03 09:20:34;;;;;;;15.67;7.47;;;;;;;-145.69;94.32;72823.41;5079093;28;20223;-75
2022/04/03 09:23:03;;;;;;;12.93;7.30;;;;;;;-145.69;94.68;72859.25;5078954;28;20194;-75
2022/04/03 09:25:31;;;;;;;14.30;7.33;;;;;;;-145.69;93.43;72851.28;5079209;28;20203;-74
2022/04/03 09:28:00;;;;;;;12.97;7.03;;;;;;;-145.69;96.00;72843.31;5079261;28;20199;-75
2022/04/03 09:30:31;;;;;;;11.57;6.80;;;;;;;-145.69;95.34;72829.38;5078956;28;20554;-76
2022/04/03 09:32:58;;;;;;;11.93;6.93;;;;;;;-145.69;91.27;72797.53;5064050;28;20207;-74
2022/04/03 09:35:29;;;;;;;10.00;6.33;;;;;;;-145.69;87.06;72761.69;5058786;28;20199;-74
2022/04/03 09:38:12;;;;;;;14.27;6.87;;;;;;;-145.69;90.17;72777.63;5077527;28;20202;-74
2022/04/03 09:40:40;;;;;;;14.60;6.77;;;;;;;-145.69;92.01;72741.78;5078940;28;20226;-75
2022/04/03 09:43:22;;;;;;;12.50;6.53;;;;;;;-145.69;81.45;72620.38;5079042;28;20248;-75
2022/04/03 09:45:52;;;;;;;11.20;5.80;;;;;;;-145.69;79.58;72530.81;5078890;28;20206;-74
2022/04/03 09:48:25;;;;;;;10.17;6.30;;;;;;;-145.69;75.31;72457.16;5078909;28;20248;-74
2022/04/03 09:51:00;;;;;;;8.97;5.87;;;;;;;-145.69;74.39;72530.81;5078981;28;20237;-74
2022/04/03 09:53:27;;;;;;;9.87;6.07;;;;;;;-145.69;82.46;72664.16;5078888;28;20285;-75
2022/04/03 09:55:54;;;;;;;10.60;5.97;;;;;;;-145.69;78.45;72638.28;5077702;28;20194;-74
2022/04/03 09:58:22;;;;;;;9.07;6.20;;;;;;;-145.69;78.77;72590.53;5075433;28;20199;-75
2022/04/03 10:00:49;;;;;;;11.83;5.97;;;;;;;-145.69;75.78;72524.84;5075194;28;20226;-75
2022/04/03 10:03:15;;;;;;;10.67;6.23;;;;;;;-145.69;75.13;72512.91;5075732;28;20229;-75
2022/04/03 10:05:45;;;;;;;10.50;6.10;;;;;;;-145.69;73.67;72518.88;5075639;28;20248;-74
2022/04/03 10:08:12;;;;;;;7.87;5.80;;;;;;;-145.69;71.93;72512.91;5076066;28;20199;-74
2022/04/03 10:10:41;;;;;;;9.77;5.43;;;;;;;-145.69;71.85;72491.00;5075539;28;20848;-73
2022/04/03 10:13:10;;;;;;;8.00;5.40;;;;;;;-145.69;75.28;72552.69;5075151;28;20198;-74
2022/04/03 10:15:38;;;;;;;8.40;5.20;;;;;;;-145.69;77.89;72650.22;5075313;28;20203;-73
2022/04/03 10:18:07;;;;;;;9.93;5.90;;;;;;;-145.69;78.20;72640.28;5074957;28;20238;-73
2022/04/03 10:20:38;;;;;;;8.37;4.80;;;;;;;-145.69;75.92;72664.16;5075143;28;20198;-73
2022/04/03 10:23:12;;;;;;;8.70;6.27;;;;;;;-145.69;76.28;72642.28;5075228;28;20202;-74
2022/04/03 10:25:44;;;;;;;9.10;6.17;;;;;;;-145.69;74.05;72570.63;5074885;28;20229;-74
2022/04/03 10:28:13;;;;;;;9.27;5.53;;;;;;;-145.69;74.14;72666.16;5075173;28;20211;-73
2022/04/03 10:30:43;;;;;;;10.43;5.00;;;;;;;-145.69;73.87;72644.25;5072444;28;20203;-73
2022/04/03 10:33:17;;;;;;;9.10;4.63;;;;;;;-145.69;73.35;72622.38;5075020;28;20652;-73
2022/04/03 10:35:49;;;;;;;9.00;4.67;;;;;;;-145.69;72.96;72612.41;5074918;28;20221;-73
2022/04/03 10:38:15;;;;;;;9.33;3.73;;;;;;;-145.69;73.36;72678.09;5074855;28;20252;-73
2022/04/03 10:40:58;;;;;;;6.10;3.90;;;;;;;-145.69;76.34;72713.94;5074873;28;20206;-73
2022/04/03 10:43:27;;;;;;;6.63;4.40;;;;;;;-145.69;76.12;72696.00;5074878;28;20395;-73
2022/04/03 10:45:55;;;;;;;6.80;4.33;;;;;;;-145.69;77.37;72640.28;5074638;28;20302;-73
2022/04/03 10:48:30;;;;;;;7.07;4.40;;;;;;;-145.69;73.36;72568.63;5074583;28;20658;-74
2022/04/03 10:51:02;;;;;;;7.27;4.73;;;;;;;-145.69;74.81;72672.13;5074702;28;20206;-73
2022/04/03 10:53:31;;;;;;;6.07;3.83;;;;;;;-145.69;73.82;72676.09;5074593;28;20209;-73
2022/04/03 10:55:59;;;;;;;9.57;4.00;;;;;;;-145.69;74.86;72668.16;5074644;28;20608;-73
2022/04/03 10:58:39;;;;;;;6.43;4.10;;;;;;;-145.69;72.54;72588.53;5074503;28;20209;-73
2022/04/03 11:01:11;;;;;;;6.40;3.90;;;;;;;-145.69;70.28;72548.72;5074064;28;20222;-74
2022/04/03 11:03:38;;;;;;;6.97;4.10;;;;;;;-145.69;70.33;72578.56;5074477;28;20294;-73